Time,TemperatureF,DewpointF,PressureIn,WindDirection,WindDirectionDegrees,WindSpeedMPH,WindSpeedGustMPH,Humidity,HourlyPrecipIn,Conditions,Clouds,dailyrainin,SoftwareType,DateUTC
2013-03-02 00:00:00,36.1,26.3,29.76,WSW,248,1.9,3.4,67,0.00,,,0.00,WUHU21623XXSP,2013-03-02 05:00:00,
2013-03-02 00:05:00,36.1,26.3,29.76,NW,315,2.5,3.4,67,0.00,,,0.00,WUHU21623XXSP,2013-03-02 05:05:00,
2013-03-02 00:11:00,36.0,26.2,29.76,West,267,0.7,2.5,67,0.00,,,0.00,WUHU21623XXSP,2013-03-02 05:11:00,
2013-03-02 00:15:00,36.0,26.2,29.76,NNW,337,3.8,3.8,67,0.00,,,0.00,WUHU21623XXSP,2013-03-02 05:15:00,
2013-03-02 00:20:00,36.0,26.2,29.77,WSW,247,3.4,3.8,67,0.00,,,0.00,WUHU21623XXSP,2013-03-02 05:20:00,
2013-03-02 00:26:00,35.8,26.1,29.76,NE,45,2.2,3.8,67,0.00,,,0.00,WUHU21623XXSP,2013-03-02 05:26:00,
2013-03-02 00:31:00,35.8,26.1,29.76,NNW,328,1.5,3.6,67,0.00,,,0.00,WUHU21623XXSP,2013-03-02 05:31:00,
2013-03-02 00:36:00,35.6,25.9,29.76,NW,309,0.9,5.1,67,0.00,,,0.00,WUHU21623XXSP,2013-03-02 05:36:00,
2013-03-02 00:41:00,35.4,25.7,29.76,NNW,337,0.3,5.1,67,0.00,,,0.00,WUHU21623XXSP,2013-03-02 05:41:00,
2013-03-02 00:46:00,35.2,25.5,29.76,NE,45,2.0,3.8,67,0.00,,,0.00,WUHU21623XXSP,2013-03-02 05:46:00,
2013-03-02 00:51:00,35.2,25.5,29.76,NNW,332,0.6,3.8,67,0.00,,,0.00,WUHU21623XXSP,2013-03-02 05:51:00,
2013-03-02 00:56:00,35.2,25.5,29.76,NNW,330,0.4,3.8,67,0.00,,,0.00,WUHU21623XXSP,2013-03-02 05:56:00,
2013-03-02 01:01:00,35.1,25.4,29.77,WNW,298,0.9,3.4,67,0.00,,,0.00,WUHU21623XXSP,2013-03-02 06:01:00,
2013-03-02 01:06:00,35.1,25.4,29.76,SW,225,0.3,3.4,67,0.00,,,0.00,WUHU21623XXSP,2013-03-02 06:06:00,
2013-03-02 01:11:00,34.9,25.2,29.76,NW,315,2.7,4.5,67,0.00,,,0.00,WUHU21623XXSP,2013-03-02 06:11:00,
2013-03-02 01:16:00,34.7,25.0,29.76,SSW,202,0.3,4.5,67,0.00,,,0.00,WUHU21623XXSP,2013-03-02 06:16:00,
2013-03-02 01:21:00,34.7,25.0,29.77,North,359,0.9,4.3,67,0.00,,,0.00,WUHU21623XXSP,2013-03-02 06:21:00,
2013-03-02 01:26:00,34.7,25.0,29.77,NNW,337,0.0,4.3,67,0.00,,,0.00,WUHU21623XXSP,2013-03-02 06:26:00,
2013-03-02 01:31:00,34.5,24.8,29.76,NNW,337,1.6,4.0,67,0.00,,,0.00,WUHU21623XXSP,2013-03-02 06:31:00,
2013-03-02 01:36:00,34.5,24.8,29.77,WSW,247,2.7,4.0,67,0.00,,,0.00,WUHU21623XXSP,2013-03-02 06:36:00,
2013-03-02 01:41:00,34.5,24.8,29.76,West,270,0.0,3.4,67,0.00,,,0.00,WUHU21623XXSP,2013-03-02 06:41:00,
2013-03-02 01:46:00,34.5,24.8,29.76,NNW,337,0.1,4.3,67,0.00,,,0.00,WUHU21623XXSP,2013-03-02 06:46:00,
2013-03-02 01:51:00,34.3,24.6,29.76,NNW,345,0.6,4.3,67,0.00,,,0.00,WUHU21623XXSP,2013-03-02 06:51:00,
2013-03-02 01:56:00,34.2,24.5,29.76,WSW,247,0.4,3.4,67,0.00,,,0.00,WUHU21623XXSP,2013-03-02 06:56:00,
2013-03-02 02:01:00,34.2,24.5,29.76,NNW,328,1.8,3.6,67,0.00,,,0.00,WUHU21623XXSP,2013-03-02 07:01:00,
2013-03-02 02:06:00,34.2,24.5,29.76,WNW,292,2.1,5.4,67,0.00,,,0.00,WUHU21623XXSP,2013-03-02 07:06:00,
2013-03-02 02:11:00,34.2,24.5,29.75,West,270,2.9,5.4,67,0.00,,,0.00,WUHU21623XXSP,2013-03-02 07:11:00,
2013-03-02 02:16:00,34.2,24.5,29.75,NW,307,2.3,4.9,67,0.00,,,0.00,WUHU21623XXSP,2013-03-02 07:16:00,
2013-03-02 02:21:00,34.0,24.3,29.75,NNE,22,0.6,5.8,67,0.00,,,0.00,WUHU21623XXSP,2013-03-02 07:21:00,
2013-03-02 02:26:00,34.0,24.3,29.75,SSW,196,0.5,5.8,67,0.00,,,0.00,WUHU21623XXSP,2013-03-02 07:26:00,
2013-03-02 02:31:00,34.0,24.7,29.75,SSW,202,0.1,4.9,68,0.00,,,0.00,WUHU21623XXSP,2013-03-02 07:31:00,
2013-03-02 02:36:00,34.0,24.7,29.75,NNW,337,0.7,4.5,68,0.00,,,0.00,WUHU21623XXSP,2013-03-02 07:36:00,
2013-03-02 02:41:00,34.0,24.7,29.75,SSW,202,0.2,4.5,68,0.00,,,0.00,WUHU21623XXSP,2013-03-02 07:41:00,
2013-03-02 02:46:00,34.0,24.7,29.75,NNW,337,0.0,3.8,68,0.00,,,0.00,WUHU21623XXSP,2013-03-02 07:46:00,
2013-03-02 02:51:00,33.8,24.5,29.75,North,0,1.1,5.1,68,0.00,,,0.00,WUHU21623XXSP,2013-03-02 07:51:00,
2013-03-02 02:56:00,34.0,24.7,29.75,NW,315,2.9,6.3,68,0.00,,,0.00,WUHU21623XXSP,2013-03-02 07:56:00,
2013-03-02 03:01:00,34.0,24.7,29.75,WSW,242,0.5,6.3,68,0.00,,,0.00,WUHU21623XXSP,2013-03-02 08:01:00,
2013-03-02 03:06:00,33.8,24.5,29.75,NW,306,1.0,7.2,68,0.00,,,0.00,WUHU21623XXSP,2013-03-02 08:06:00,
2013-03-02 03:11:00,33.8,24.5,29.75,ENE,57,1.8,7.2,68,0.00,,,0.00,WUHU21623XXSP,2013-03-02 08:11:00,
2013-03-02 03:16:00,33.8,24.5,29.75,WNW,300,0.9,4.9,68,0.00,,,0.00,WUHU21623XXSP,2013-03-02 08:16:00,
2013-03-02 03:21:00,33.8,24.5,29.75,WNW,292,1.6,5.8,68,0.00,,,0.00,WUHU21623XXSP,2013-03-02 08:21:00,
2013-03-02 03:26:00,33.8,24.5,29.75,WNW,301,1.9,5.8,68,0.00,,,0.00,WUHU21623XXSP,2013-03-02 08:26:00,
2013-03-02 03:31:00,33.6,24.3,29.75,South,180,3.6,4.5,68,0.00,,,0.00,WUHU21623XXSP,2013-03-02 08:31:00,
2013-03-02 03:36:00,33.6,24.3,29.75,NE,45,1.3,6.0,68,0.00,,,0.00,WUHU21623XXSP,2013-03-02 08:36:00,
2013-03-02 03:41:00,33.6,24.3,29.75,NW,312,1.7,6.0,68,0.00,,,0.00,WUHU21623XXSP,2013-03-02 08:41:00,
2013-03-02 03:46:00,33.6,24.3,29.75,NNW,334,2.8,8.5,68,0.00,,,0.00,WUHU21623XXSP,2013-03-02 08:46:00,
2013-03-02 03:51:00,33.6,24.3,29.75,WNW,292,7.8,8.5,68,0.00,,,0.00,WUHU21623XXSP,2013-03-02 08:51:00,
2013-03-02 03:56:00,33.6,24.3,29.75,NW,306,1.4,7.8,68,0.00,,,0.00,WUHU21623XXSP,2013-03-02 08:56:00,
2013-03-02 04:01:00,33.4,24.1,29.76,WNW,292,1.2,4.0,68,0.00,,,0.00,WUHU21623XXSP,2013-03-02 09:01:00,
2013-03-02 04:06:00,33.4,24.1,29.76,NW,315,2.0,4.3,68,0.00,,,0.00,WUHU21623XXSP,2013-03-02 09:06:00,
2013-03-02 04:11:00,33.4,24.1,29.76,NNW,337,3.6,18.8,68,0.00,,,0.00,WUHU21623XXSP,2013-03-02 09:11:00,
2013-03-02 04:16:00,33.4,24.1,29.76,NW,304,0.2,18.8,68,0.00,,,0.00,WUHU21623XXSP,2013-03-02 09:16:00,
2013-03-02 04:21:00,33.4,24.1,29.76,NW,315,2.2,3.8,68,0.00,,,0.00,WUHU21623XXSP,2013-03-02 09:21:00,
2013-03-02 04:26:00,33.4,24.1,29.76,WNW,290,1.7,7.2,68,0.00,,,0.00,WUHU21623XXSP,2013-03-02 09:26:00,
2013-03-02 04:31:00,33.4,24.1,29.75,NNW,337,0.8,7.2,68,0.00,,,0.00,WUHU21623XXSP,2013-03-02 09:31:00,
2013-03-02 04:36:00,33.4,24.1,29.75,NNW,333,0.6,5.1,68,0.00,,,0.00,WUHU21623XXSP,2013-03-02 09:36:00,
2013-03-02 04:41:00,33.4,24.1,29.75,NW,315,3.6,3.6,68,0.00,,,0.00,WUHU21623XXSP,2013-03-02 09:41:00,
2013-03-02 04:46:00,33.4,24.1,29.76,WNW,292,1.1,5.6,68,0.00,,,0.00,WUHU21623XXSP,2013-03-02 09:46:00,
2013-03-02 04:51:00,33.4,24.1,29.76,North,6,0.5,5.6,68,0.00,,,0.00,WUHU21623XXSP,2013-03-02 09:51:00,
2013-03-02 04:56:00,33.4,24.1,29.75,NW,315,2.2,8.5,68,0.00,,,0.00,WUHU21623XXSP,2013-03-02 09:56:00,
2013-03-02 05:01:00,33.4,24.1,29.76,NW,320,1.0,8.5,68,0.00,,,0.00,WUHU21623XXSP,2013-03-02 10:01:00,
2013-03-02 05:06:00,33.4,24.1,29.76,SW,225,2.5,5.8,68,0.00,,,0.00,WUHU21623XXSP,2013-03-02 10:06:00,
2013-03-02 05:12:00,33.4,24.1,29.76,NNW,337,1.3,4.7,68,0.00,,,0.00,WUHU21623XXSP,2013-03-02 10:12:00,
2013-03-02 05:17:00,33.4,24.1,29.76,West,268,1.4,4.0,68,0.00,,,0.00,WUHU21623XXSP,2013-03-02 10:17:00,
2013-03-02 05:22:00,33.3,24.0,29.76,NW,315,1.3,3.6,68,0.00,,,0.00,WUHU21623XXSP,2013-03-02 10:22:00,
2013-03-02 05:27:00,33.3,24.0,29.76,NW,317,1.9,6.5,68,0.00,,,0.00,WUHU21623XXSP,2013-03-02 10:27:00,
2013-03-02 05:32:00,33.4,24.1,29.76,NNW,337,0.1,6.5,68,0.00,,,0.00,WUHU21623XXSP,2013-03-02 10:32:00,
2013-03-02 05:38:00,33.3,24.0,29.75,WNW,285,2.3,3.1,68,0.00,,,0.00,WUHU21623XXSP,2013-03-02 10:38:00,
2013-03-02 05:43:00,33.3,24.0,29.76,West,270,3.6,4.5,68,0.00,,,0.00,WUHU21623XXSP,2013-03-02 10:43:00,
2013-03-02 05:48:00,33.3,24.0,29.76,NW,305,0.4,3.6,68,0.00,,,0.00,WUHU21623XXSP,2013-03-02 10:48:00,
2013-03-02 05:53:00,33.3,24.0,29.76,WNW,292,0.6,4.5,68,0.00,,,0.00,WUHU21623XXSP,2013-03-02 10:53:00,
2013-03-02 05:58:00,33.3,24.0,29.76,NW,315,1.3,4.9,68,0.00,,,0.00,WUHU21623XXSP,2013-03-02 10:58:00,
2013-03-02 06:03:00,33.3,24.0,29.76,NW,315,0.0,4.9,68,0.00,,,0.00,WUHU21623XXSP,2013-03-02 11:03:00,
2013-03-02 06:08:00,33.1,23.8,29.76,NNE,22,0.0,4.7,68,0.00,,,0.00,WUHU21623XXSP,2013-03-02 11:08:00,
2013-03-02 06:13:00,33.3,24.0,29.76,West,270,0.0,4.5,68,0.00,,,0.00,WUHU21623XXSP,2013-03-02 11:13:00,
2013-03-02 06:17:00,33.3,24.0,29.76,NW,312,0.4,3.1,68,0.00,,,0.00,WUHU21623XXSP,2013-03-02 11:17:00,
2013-03-02 06:23:00,33.3,24.0,29.76,NNW,345,0.9,3.1,68,0.00,,,0.00,WUHU21623XXSP,2013-03-02 11:23:00,
2013-03-02 06:27:00,33.3,24.0,29.76,NNE,22,2.2,3.1,68,0.00,,,0.00,WUHU21623XXSP,2013-03-02 11:27:00,
2013-03-02 06:32:00,33.1,23.8,29.77,WNW,292,0.0,2.5,68,0.00,,,0.00,WUHU21623XXSP,2013-03-02 11:32:00,
2013-03-02 06:39:00,33.3,24.0,29.77,NW,315,0.0,4.5,68,0.00,,,0.00,WUHU21623XXSP,2013-03-02 11:39:00,
2013-03-02 06:44:00,33.3,24.0,29.76,NNW,335,1.2,4.5,68,0.00,,,0.00,WUHU21623XXSP,2013-03-02 11:44:00,
2013-03-02 06:49:00,33.1,23.8,29.77,NNW,337,0.0,3.6,68,0.00,,,0.00,WUHU21623XXSP,2013-03-02 11:49:00,
2013-03-02 06:54:00,33.1,23.8,29.76,NNW,346,2.1,8.9,68,0.00,,,0.00,WUHU21623XXSP,2013-03-02 11:54:00,
2013-03-02 06:59:00,33.1,23.8,29.77,NE,45,1.3,8.9,68,0.00,,,0.00,WUHU21623XXSP,2013-03-02 11:59:00,
2013-03-02 07:04:00,33.3,24.0,29.76,SE,135,1.3,7.4,68,0.00,,,0.00,WUHU21623XXSP,2013-03-02 12:04:00,
2013-03-02 07:09:00,33.3,24.0,29.77,NW,323,0.8,7.4,68,0.00,,,0.00,WUHU21623XXSP,2013-03-02 12:09:00,
2013-03-02 07:14:00,33.3,24.0,29.77,NNE,22,0.7,4.7,68,0.00,,,0.00,WUHU21623XXSP,2013-03-02 12:14:00,
2013-03-02 07:19:00,33.3,24.0,29.77,NE,45,0.0,4.7,68,0.00,,,0.00,WUHU21623XXSP,2013-03-02 12:19:00,
2013-03-02 07:24:00,33.3,24.0,29.77,NNW,337,4.7,4.7,68,0.00,,,0.00,WUHU21623XXSP,2013-03-02 12:24:00,
2013-03-02 07:29:00,33.4,24.1,29.77,NNE,22,2.0,4.7,68,0.00,,,0.00,WUHU21623XXSP,2013-03-02 12:29:00,
2013-03-02 07:34:00,33.4,24.1,29.77,NW,315,0.6,3.6,68,0.00,,,0.00,WUHU21623XXSP,2013-03-02 12:34:00,
2013-03-02 07:39:00,33.4,24.1,29.77,NNW,337,0.0,4.0,68,0.00,,,0.00,WUHU21623XXSP,2013-03-02 12:39:00,
2013-03-02 07:44:00,33.6,24.3,29.77,NW,315,0.9,4.5,68,0.00,,,0.00,WUHU21623XXSP,2013-03-02 12:44:00,
2013-03-02 07:49:00,33.4,24.1,29.76,SW,225,0.1,4.5,68,0.00,,,0.00,WUHU21623XXSP,2013-03-02 12:49:00,
2013-03-02 07:54:00,33.4,24.1,29.76,NNW,347,1.9,4.5,68,0.00,,,0.00,WUHU21623XXSP,2013-03-02 12:54:00,
2013-03-02 07:59:00,33.6,24.3,29.76,West,280,2.1,4.9,68,0.00,,,0.00,WUHU21623XXSP,2013-03-02 12:59:00,
2013-03-02 08:04:00,34.0,24.7,29.76,WSW,247,1.6,4.9,68,0.00,,,0.00,WUHU21623XXSP,2013-03-02 13:04:00,
2013-03-02 08:09:00,34.2,24.9,29.76,North,0,0.2,2.5,68,0.00,,,0.00,WUHU21623XXSP,2013-03-02 13:09:00,
2013-03-02 08:14:00,34.3,25.0,29.76,SSW,202,1.3,5.6,68,0.00,,,0.00,WUHU21623XXSP,2013-03-02 13:14:00,
2013-03-02 08:19:00,34.7,25.0,29.75,NNW,331,2.0,5.6,67,0.00,,,0.00,WUHU21623XXSP,2013-03-02 13:19:00,
2013-03-02 08:24:00,34.7,25.0,29.75,WNW,296,2.3,5.4,67,0.00,,,0.00,WUHU21623XXSP,2013-03-02 13:24:00,
2013-03-02 08:29:00,34.9,24.8,29.75,WSW,247,6.3,6.3,66,0.00,,,0.00,WUHU21623XXSP,2013-03-02 13:29:00,
2013-03-02 08:34:00,35.1,25.0,29.76,NNE,22,0.6,6.3,66,0.00,,,0.00,WUHU21623XXSP,2013-03-02 13:34:00,
2013-03-02 08:39:00,35.2,25.1,29.75,NW,325,1.6,5.1,66,0.00,,,0.00,WUHU21623XXSP,2013-03-02 13:39:00,
2013-03-02 08:45:00,35.4,24.9,29.75,WSW,247,0.8,4.3,65,0.00,,,0.00,WUHU21623XXSP,2013-03-02 13:45:00,
2013-03-02 08:50:00,35.8,25.3,29.75,NW,312,1.2,3.4,65,0.00,,,0.00,WUHU21623XXSP,2013-03-02 13:50:00,
2013-03-02 08:55:00,36.1,25.6,29.75,NE,38,2.6,6.3,65,0.00,,,0.00,WUHU21623XXSP,2013-03-02 13:55:00,
2013-03-02 09:00:00,36.1,25.2,29.75,WNW,287,2.2,7.2,64,0.00,,,0.00,WUHU21623XXSP,2013-03-02 14:00:00,
2013-03-02 09:05:00,36.3,25.4,29.75,NNW,337,2.2,7.2,64,0.00,,,0.00,WUHU21623XXSP,2013-03-02 14:05:00,
2013-03-02 09:10:00,36.5,25.2,29.74,West,270,3.1,6.7,63,0.00,,,0.00,WUHU21623XXSP,2013-03-02 14:10:00,
2013-03-02 09:15:00,36.9,25.6,29.74,NW,316,2.4,6.5,63,0.00,,,0.00,WUHU21623XXSP,2013-03-02 14:15:00,
2013-03-02 09:20:00,37.0,25.7,29.74,NNE,22,3.6,7.4,63,0.00,,,0.00,WUHU21623XXSP,2013-03-02 14:20:00,
2013-03-02 09:25:00,37.4,25.7,29.74,NNW,337,4.7,7.4,62,0.00,,,0.00,WUHU21623XXSP,2013-03-02 14:25:00,
2013-03-02 09:30:00,37.6,25.9,29.74,NNW,334,3.0,8.5,62,0.00,,,0.00,WUHU21623XXSP,2013-03-02 14:30:00,
2013-03-02 09:35:00,37.4,25.3,29.74,West,270,8.7,8.7,61,0.00,,,0.00,WUHU21623XXSP,2013-03-02 14:35:00,
2013-03-02 09:40:00,37.6,25.5,29.74,WNW,292,5.1,8.7,61,0.00,,,0.00,WUHU21623XXSP,2013-03-02 14:40:00,
2013-03-02 09:45:00,37.8,25.7,29.74,North,2,0.5,8.3,61,0.00,,,0.00,WUHU21623XXSP,2013-03-02 14:45:00,
2013-03-02 09:50:00,38.3,26.2,29.74,West,270,5.1,8.3,61,0.00,,,0.00,WUHU21623XXSP,2013-03-02 14:50:00,
2013-03-02 09:55:00,38.5,26.4,29.74,NW,311,1.7,7.8,61,0.00,,,0.00,WUHU21623XXSP,2013-03-02 14:55:00,
2013-03-02 10:00:00,38.8,26.2,29.74,North,0,4.9,8.5,60,0.00,,,0.00,WUHU21623XXSP,2013-03-02 15:00:00,
2013-03-02 10:05:00,39.4,26.8,29.74,NW,311,2.5,8.5,60,0.00,,,0.00,WUHU21623XXSP,2013-03-02 15:05:00,
2013-03-02 10:10:00,39.4,26.4,29.74,North,0,2.2,8.9,59,0.00,,,0.00,WUHU21623XXSP,2013-03-02 15:10:00,
2013-03-02 10:15:00,39.4,26.4,29.74,NW,307,1.7,8.9,59,0.00,,,0.00,WUHU21623XXSP,2013-03-02 15:15:00,
2013-03-02 10:20:00,39.4,26.0,29.74,West,270,3.4,8.7,58,0.00,,,0.00,WUHU21623XXSP,2013-03-02 15:20:00,
2013-03-02 10:25:00,39.4,26.0,29.74,WSW,247,2.5,8.7,58,0.00,,,0.00,WUHU21623XXSP,2013-03-02 15:25:00,
2013-03-02 10:30:00,39.4,26.0,29.74,East,90,1.3,4.7,58,0.00,,,0.00,WUHU21623XXSP,2013-03-02 15:30:00,
2013-03-02 10:35:00,39.4,26.4,29.74,SSW,196,0.7,4.7,59,0.00,,,0.00,WUHU21623XXSP,2013-03-02 15:35:00,
2013-03-02 10:40:00,39.6,26.6,29.74,NW,313,1.9,6.7,59,0.00,,,0.00,WUHU21623XXSP,2013-03-02 15:40:00,
2013-03-02 10:45:00,39.6,26.2,29.74,WNW,292,0.4,6.7,58,0.00,,,0.00,WUHU21623XXSP,2013-03-02 15:45:00,
2013-03-02 10:51:00,39.6,26.2,29.73,NW,315,2.0,4.7,58,0.00,,,0.00,WUHU21623XXSP,2013-03-02 15:51:00,
2013-03-02 10:56:00,39.4,26.0,29.73,ENE,67,4.0,6.0,58,0.00,,,0.00,WUHU21623XXSP,2013-03-02 15:56:00,
2013-03-02 11:01:00,39.4,26.0,29.74,North,0,4.0,6.0,58,0.00,,,0.00,WUHU21623XXSP,2013-03-02 16:01:00,
2013-03-02 11:06:00,39.6,26.2,29.74,NW,315,2.5,4.0,58,0.00,,,0.00,WUHU21623XXSP,2013-03-02 16:06:00,
2013-03-02 11:11:00,39.6,26.2,29.74,NE,45,6.7,6.7,58,0.00,,,0.00,WUHU21623XXSP,2013-03-02 16:11:00,
2013-03-02 11:16:00,39.4,26.0,29.74,WNW,292,0.2,8.1,58,0.00,,,0.00,WUHU21623XXSP,2013-03-02 16:16:00,
2013-03-02 11:21:00,39.4,26.0,29.74,NW,322,0.5,8.1,58,0.00,,,0.00,WUHU21623XXSP,2013-03-02 16:21:00,
2013-03-02 11:26:00,39.4,26.0,29.73,NE,45,3.8,3.8,58,0.00,,,0.00,WUHU21623XXSP,2013-03-02 16:26:00,
2013-03-02 11:31:00,39.2,25.4,29.74,North,4,1.7,8.5,57,0.00,,,0.00,WUHU21623XXSP,2013-03-02 16:31:00,
2013-03-02 11:36:00,38.8,25.0,29.74,North,0,1.3,9.2,57,0.00,,,0.00,WUHU21623XXSP,2013-03-02 16:36:00,
2013-03-02 11:41:00,38.8,25.4,29.74,NNE,22,2.7,9.2,58,0.00,,,0.00,WUHU21623XXSP,2013-03-02 16:41:00,
2013-03-02 11:46:00,38.8,25.0,29.73,NE,39,3.6,8.1,57,0.00,,,0.00,WUHU21623XXSP,2013-03-02 16:46:00,
2013-03-02 11:51:00,39.2,25.8,29.73,NW,320,2.3,8.1,58,0.00,,,0.00,WUHU21623XXSP,2013-03-02 16:51:00,
2013-03-02 11:56:00,39.2,25.8,29.73,NW,316,2.2,5.6,58,0.00,,,0.00,WUHU21623XXSP,2013-03-02 16:56:00,
2013-03-02 12:01:00,39.4,26.0,29.73,NNW,337,0.2,4.0,58,0.00,,,0.00,WUHU21623XXSP,2013-03-02 17:01:00,
2013-03-02 12:06:00,39.4,26.0,29.73,WSW,248,0.4,4.0,58,0.00,,,0.00,WUHU21623XXSP,2013-03-02 17:06:00,
2013-03-02 12:11:00,39.4,25.5,29.73,NE,45,0.0,3.1,57,0.00,,,0.00,WUHU21623XXSP,2013-03-02 17:11:00,
2013-03-02 12:16:00,39.6,26.2,29.73,West,267,0.8,3.1,58,0.00,,,0.00,WUHU21623XXSP,2013-03-02 17:16:00,
2013-03-02 12:21:00,39.7,26.3,29.72,NE,45,1.1,2.9,58,0.00,,,0.00,WUHU21623XXSP,2013-03-02 17:21:00,
2013-03-02 12:26:00,39.6,26.2,29.72,WNW,300,1.7,5.4,58,0.00,,,0.00,WUHU21623XXSP,2013-03-02 17:26:00,
2013-03-02 12:31:00,39.6,25.7,29.72,WSW,247,4.9,5.4,57,0.00,,,0.00,WUHU21623XXSP,2013-03-02 17:31:00,
2013-03-02 12:36:00,39.4,25.5,29.72,WNW,299,1.7,4.9,57,0.00,,,0.00,WUHU21623XXSP,2013-03-02 17:36:00,
2013-03-02 12:41:00,39.4,25.5,29.72,NW,309,1.5,4.0,57,0.00,,,0.00,WUHU21623XXSP,2013-03-02 17:41:00,
2013-03-02 12:46:00,39.2,25.4,29.72,WSW,257,1.1,4.0,57,0.00,,,0.00,WUHU21623XXSP,2013-03-02 17:46:00,
2013-03-02 12:51:00,38.8,25.0,29.72,NW,315,1.9,4.0,57,0.00,,,0.00,WUHU21623XXSP,2013-03-02 17:51:00,
2013-03-02 12:57:00,38.8,25.0,29.72,NW,315,2.0,4.0,57,0.00,,,0.00,WUHU21623XXSP,2013-03-02 17:57:00,
2013-03-02 13:02:00,38.8,25.4,29.71,SW,225,4.5,4.5,58,0.00,,,0.00,WUHU21623XXSP,2013-03-02 18:02:00,
2013-03-02 13:07:00,38.8,25.4,29.71,West,270,0.7,4.5,58,0.00,,,0.00,WUHU21623XXSP,2013-03-02 18:07:00,
2013-03-02 13:12:00,39.4,26.0,29.71,North,0,2.9,4.9,58,0.00,,,0.00,WUHU21623XXSP,2013-03-02 18:12:00,
2013-03-02 13:17:00,38.8,25.4,29.71,SSW,202,0.4,4.9,58,0.00,,,0.00,WUHU21623XXSP,2013-03-02 18:17:00,
2013-03-02 13:22:00,39.4,26.0,29.71,SW,236,0.8,3.8,58,0.00,,,0.00,WUHU21623XXSP,2013-03-02 18:22:00,
2013-03-02 13:28:00,39.4,26.0,29.71,NNW,337,0.0,3.4,58,0.00,,,0.00,WUHU21623XXSP,2013-03-02 18:28:00,
2013-03-02 13:34:00,39.4,26.0,29.71,West,271,1.3,5.1,58,0.00,,,0.00,WUHU21623XXSP,2013-03-02 18:34:00,
2013-03-02 13:39:00,39.2,25.8,29.71,North,351,0.5,5.1,58,0.00,,,0.00,WUHU21623XXSP,2013-03-02 18:39:00,
2013-03-02 13:45:00,39.4,26.0,29.70,WSW,256,0.8,3.4,58,0.00,,,0.00,WUHU21623XXSP,2013-03-02 18:45:00,
2013-03-02 13:50:00,39.4,26.0,29.70,SSW,199,0.4,5.1,58,0.00,,,0.00,WUHU21623XXSP,2013-03-02 18:50:00,
2013-03-02 13:55:00,39.4,26.0,29.70,WNW,297,2.0,5.1,58,0.00,,,0.00,WUHU21623XXSP,2013-03-02 18:55:00,
2013-03-02 14:00:00,39.4,26.0,29.70,North,0,0.0,5.4,58,0.00,,,0.00,WUHU21623XXSP,2013-03-02 19:00:00,
2013-03-02 14:05:00,39.0,25.6,29.70,NW,304,0.8,5.4,58,0.00,,,0.00,WUHU21623XXSP,2013-03-02 19:05:00,
2013-03-02 14:10:00,39.2,25.8,29.70,WNW,292,0.1,3.6,58,0.00,,,0.00,WUHU21623XXSP,2013-03-02 19:10:00,
2013-03-02 14:15:00,39.4,26.0,29.69,North,0,1.3,4.7,58,0.00,,,0.00,WUHU21623XXSP,2013-03-02 19:15:00,
2013-03-02 14:20:00,39.2,25.8,29.69,WNW,296,1.9,4.7,58,0.00,,,0.00,WUHU21623XXSP,2013-03-02 19:20:00,
2013-03-02 14:25:00,39.2,25.8,29.69,WSW,245,0.4,4.0,58,0.00,,,0.00,WUHU21623XXSP,2013-03-02 19:25:00,
2013-03-02 14:30:00,39.4,26.0,29.70,NW,315,1.3,3.4,58,0.00,,,0.00,WUHU21623XXSP,2013-03-02 19:30:00,
2013-03-02 14:35:00,39.4,26.4,29.69,SW,225,5.8,5.8,59,0.00,,,0.00,WUHU21623XXSP,2013-03-02 19:35:00,
2013-03-02 14:40:00,39.4,26.4,29.69,NW,312,1.7,5.8,59,0.00,,,0.00,WUHU21623XXSP,2013-03-02 19:40:00,
2013-03-02 14:45:00,39.4,26.4,29.69,WSW,247,0.4,4.3,59,0.00,,,0.00,WUHU21623XXSP,2013-03-02 19:45:00,
2013-03-02 14:50:00,39.4,26.4,29.69,NNW,337,1.3,2.7,59,0.00,,,0.00,WUHU21623XXSP,2013-03-02 19:50:00,
2013-03-02 14:55:00,39.2,26.2,29.69,NW,323,0.6,4.9,59,0.00,,,0.00,WUHU21623XXSP,2013-03-02 19:55:00,
2013-03-02 15:00:00,39.2,26.2,29.69,West,270,4.5,4.9,59,0.00,,,0.00,WUHU21623XXSP,2013-03-02 20:00:00,
2013-03-02 15:05:00,39.2,26.2,29.69,NW,315,1.6,4.5,59,0.00,,,0.00,WUHU21623XXSP,2013-03-02 20:05:00,
2013-03-02 15:10:00,39.0,26.0,29.69,NNW,329,0.4,3.1,59,0.00,,,0.00,WUHU21623XXSP,2013-03-02 20:10:00,
2013-03-02 15:15:00,38.8,25.8,29.68,West,281,1.8,4.3,59,0.00,,,0.00,WUHU21623XXSP,2013-03-02 20:15:00,
2013-03-02 15:20:00,38.8,25.8,29.69,NNW,336,1.2,4.3,59,0.00,,,0.00,WUHU21623XXSP,2013-03-02 20:20:00,
2013-03-02 15:25:00,38.8,25.8,29.68,NNW,337,1.8,3.6,59,0.00,,,0.00,WUHU21623XXSP,2013-03-02 20:25:00,
2013-03-02 15:30:00,39.0,26.0,29.69,NNW,337,2.5,2.9,59,0.00,,,0.00,WUHU21623XXSP,2013-03-02 20:30:00,
2013-03-02 15:35:00,38.8,25.8,29.69,NW,315,0.5,2.9,59,0.00,,,0.00,WUHU21623XXSP,2013-03-02 20:35:00,
2013-03-02 15:40:00,38.8,25.8,29.68,NW,322,2.2,5.4,59,0.00,,,0.00,WUHU21623XXSP,2013-03-02 20:40:00,
2013-03-02 15:45:00,38.8,25.8,29.68,WNW,301,2.1,5.4,59,0.00,,,0.00,WUHU21623XXSP,2013-03-02 20:45:00,
2013-03-02 15:50:00,38.8,25.8,29.68,WNW,288,0.6,5.6,59,0.00,,,0.00,WUHU21623XXSP,2013-03-02 20:50:00,
2013-03-02 15:55:00,38.8,26.2,29.68,NNW,341,2.6,5.6,60,0.00,,,0.00,WUHU21623XXSP,2013-03-02 20:55:00,
2013-03-02 16:00:00,38.8,26.2,29.68,NW,315,2.0,4.3,60,0.00,,,0.00,WUHU21623XXSP,2013-03-02 21:00:00,
2013-03-02 16:06:00,38.8,26.2,29.69,SSE,157,0.0,3.8,60,0.00,,,0.00,WUHU21623XXSP,2013-03-02 21:06:00,
2013-03-02 16:11:00,38.3,25.4,29.68,WSW,247,0.7,3.8,59,0.00,,,0.00,WUHU21623XXSP,2013-03-02 21:11:00,
2013-03-02 16:16:00,38.5,26.0,29.68,WNW,292,2.9,6.9,60,0.00,,,0.00,WUHU21623XXSP,2013-03-02 21:16:00,
2013-03-02 16:21:00,38.3,25.8,29.68,WSW,247,4.9,6.9,60,0.00,,,0.00,WUHU21623XXSP,2013-03-02 21:21:00,
2013-03-02 16:26:00,38.3,25.8,29.69,NW,318,0.6,6.5,60,0.00,,,0.00,WUHU21623XXSP,2013-03-02 21:26:00,
2013-03-02 16:31:00,38.1,25.6,29.69,West,277,0.7,6.5,60,0.00,,,0.00,WUHU21623XXSP,2013-03-02 21:31:00,
2013-03-02 16:36:00,38.1,25.6,29.69,West,270,0.1,4.0,60,0.00,,,0.00,WUHU21623XXSP,2013-03-02 21:36:00,
2013-03-02 16:41:00,38.1,26.0,29.69,WNW,293,1.1,4.0,61,0.00,,,0.00,WUHU21623XXSP,2013-03-02 21:41:00,
2013-03-02 16:46:00,38.1,26.0,29.69,NE,45,1.3,3.8,61,0.00,,,0.00,WUHU21623XXSP,2013-03-02 21:46:00,
2013-03-02 16:51:00,37.9,25.8,29.69,WNW,292,2.0,4.5,61,0.00,,,0.00,WUHU21623XXSP,2013-03-02 21:51:00,
2013-03-02 16:56:00,37.8,26.1,29.69,NW,315,2.5,4.5,62,0.00,,,0.00,WUHU21623XXSP,2013-03-02 21:56:00,
2013-03-02 17:01:00,37.6,25.9,29.69,WNW,296,3.1,5.6,62,0.00,,,0.00,WUHU21623XXSP,2013-03-02 22:01:00,
2013-03-02 17:06:00,37.6,25.9,29.69,WNW,292,3.6,5.6,62,0.00,,,0.00,WUHU21623XXSP,2013-03-02 22:06:00,
2013-03-02 17:14:00,37.4,25.7,29.69,NNW,337,2.5,5.6,62,0.00,,,0.00,WUHU21623XXSP,2013-03-02 22:14:00,
2013-03-02 17:19:00,37.0,25.3,29.69,WSW,255,0.9,5.6,62,0.00,,,0.00,WUHU21623XXSP,2013-03-02 22:19:00,
2013-03-02 17:24:00,37.0,25.7,29.70,West,272,1.4,3.6,63,0.00,,,0.00,WUHU21623XXSP,2013-03-02 22:24:00,
2013-03-02 17:29:00,36.9,25.6,29.70,WNW,292,0.5,4.5,63,0.00,,,0.00,WUHU21623XXSP,2013-03-02 22:29:00,
2013-03-02 17:34:00,36.9,25.6,29.70,NNW,337,2.9,4.5,63,0.00,,,0.00,WUHU21623XXSP,2013-03-02 22:34:00,
2013-03-02 17:39:00,36.7,25.8,29.70,NW,304,1.4,6.0,64,0.00,,,0.00,WUHU21623XXSP,2013-03-02 22:39:00,
2013-03-02 17:44:00,36.5,25.6,29.70,WNW,300,1.4,6.3,64,0.00,,,0.00,WUHU21623XXSP,2013-03-02 22:44:00,
2013-03-02 17:49:00,36.5,25.6,29.70,West,270,1.5,6.3,64,0.00,,,0.00,WUHU21623XXSP,2013-03-02 22:49:00,
2013-03-02 17:54:00,36.5,26.0,29.70,WNW,297,1.5,11.0,65,0.00,,,0.00,WUHU21623XXSP,2013-03-02 22:54:00,
2013-03-02 17:59:00,36.3,25.8,29.71,WSW,247,0.5,11.0,65,0.00,,,0.00,WUHU21623XXSP,2013-03-02 22:59:00,
2013-03-02 18:04:00,36.1,25.6,29.71,West,273,0.7,4.3,65,0.00,,,0.00,WUHU21623XXSP,2013-03-02 23:04:00,
2013-03-02 18:10:00,36.1,25.6,29.71,NW,305,0.4,3.4,65,0.00,,,0.00,WUHU21623XXSP,2013-03-02 23:10:00,
2013-03-02 18:15:00,36.0,25.9,29.72,WNW,288,0.7,2.9,66,0.00,,,0.00,WUHU21623XXSP,2013-03-02 23:15:00,
2013-03-02 18:20:00,36.0,25.9,29.72,WNW,292,0.3,2.9,66,0.00,,,0.00,WUHU21623XXSP,2013-03-02 23:20:00,
2013-03-02 18:25:00,36.0,25.9,29.72,NW,315,2.5,3.8,66,0.00,,,0.00,WUHU21623XXSP,2013-03-02 23:25:00,
2013-03-02 18:30:00,36.0,25.9,29.72,NW,315,0.1,8.5,66,0.00,,,0.00,WUHU21623XXSP,2013-03-02 23:30:00,
2013-03-02 18:35:00,35.8,25.7,29.72,NW,320,1.0,8.5,66,0.00,,,0.00,WUHU21623XXSP,2013-03-02 23:35:00,
2013-03-02 18:40:00,35.8,25.7,29.72,North,0,1.3,4.7,66,0.00,,,0.00,WUHU21623XXSP,2013-03-02 23:40:00,
2013-03-02 18:45:00,35.8,25.7,29.72,NNW,337,0.1,4.7,66,0.00,,,0.00,WUHU21623XXSP,2013-03-02 23:45:00,
2013-03-02 18:50:00,35.8,26.1,29.72,NW,315,1.1,4.3,67,0.00,,,0.00,WUHU21623XXSP,2013-03-02 23:50:00,
2013-03-02 18:55:00,35.6,25.9,29.72,West,266,0.7,4.7,67,0.00,,,0.00,WUHU21623XXSP,2013-03-02 23:55:00,
2013-03-02 19:00:00,35.4,25.7,29.72,WNW,294,0.5,4.7,67,0.00,,,0.00,WUHU21623XXSP,2013-03-03 00:00:00,
2013-03-02 19:05:00,35.4,25.7,29.72,NNE,22,0.0,3.6,67,0.00,,,0.00,WUHU21623XXSP,2013-03-03 00:05:00,
2013-03-02 19:10:00,35.4,25.7,29.72,WSW,247,0.0,3.6,67,0.00,,,0.00,WUHU21623XXSP,2013-03-03 00:10:00,
2013-03-02 19:15:00,35.4,25.7,29.72,NW,304,2.1,3.8,67,0.00,,,0.00,WUHU21623XXSP,2013-03-03 00:15:00,
2013-03-02 19:20:00,35.2,25.5,29.72,WSW,238,0.6,3.8,67,0.00,,,0.00,WUHU21623XXSP,2013-03-03 00:20:00,
2013-03-02 19:25:00,35.2,25.5,29.72,West,266,1.2,4.7,67,0.00,,,0.00,WUHU21623XXSP,2013-03-03 00:25:00,
2013-03-02 19:30:00,35.2,25.5,29.73,NW,315,1.8,4.7,67,0.00,,,0.00,WUHU21623XXSP,2013-03-03 00:30:00,
2013-03-02 19:35:00,35.1,25.4,29.73,West,278,0.5,3.6,67,0.00,,,0.00,WUHU21623XXSP,2013-03-03 00:35:00,
2013-03-02 19:40:00,35.1,25.4,29.73,NW,313,1.7,3.8,67,0.00,,,0.00,WUHU21623XXSP,2013-03-03 00:40:00,
2013-03-02 19:46:00,35.1,25.7,29.72,North,0,1.8,3.8,68,0.00,,,0.00,WUHU21623XXSP,2013-03-03 00:46:00,
2013-03-02 19:51:00,34.9,25.5,29.72,NW,315,0.0,4.3,68,0.00,,,0.00,WUHU21623XXSP,2013-03-03 00:51:00,
2013-03-02 19:56:00,34.7,25.4,29.72,WNW,297,1.3,4.5,68,0.00,,,0.00,WUHU21623XXSP,2013-03-03 00:56:00,
2013-03-02 20:01:00,34.7,25.4,29.72,WNW,292,2.2,4.5,68,0.00,,,0.00,WUHU21623XXSP,2013-03-03 01:01:00,
2013-03-02 20:06:00,34.7,25.4,29.72,West,271,0.8,2.9,68,0.00,,,0.00,WUHU21623XXSP,2013-03-03 01:06:00,
2013-03-02 20:11:00,34.7,25.4,29.73,West,279,0.3,2.9,68,0.00,,,0.00,WUHU21623XXSP,2013-03-03 01:11:00,
2013-03-02 20:16:00,34.7,25.4,29.73,West,270,2.0,2.9,68,0.00,,,0.00,WUHU21623XXSP,2013-03-03 01:16:00,
2013-03-02 20:21:00,34.5,25.5,29.73,SSW,202,1.1,2.2,69,0.00,,,0.00,WUHU21623XXSP,2013-03-03 01:21:00,
2013-03-02 20:26:00,34.3,25.3,29.73,NNE,22,2.7,2.9,69,0.00,,,0.00,WUHU21623XXSP,2013-03-03 01:26:00,
2013-03-02 20:31:00,34.3,25.3,29.73,NW,315,0.3,6.0,69,0.00,,,0.00,WUHU21623XXSP,2013-03-03 01:31:00,
2013-03-02 20:36:00,34.2,25.2,29.73,NNW,337,1.3,6.0,69,0.00,,,0.00,WUHU21623XXSP,2013-03-03 01:36:00,
2013-03-02 20:41:00,34.2,25.6,29.73,NW,315,2.0,3.6,70,0.00,,,0.00,WUHU21623XXSP,2013-03-03 01:41:00,
2013-03-02 20:46:00,34.0,25.7,29.73,WNW,294,0.6,8.5,71,0.00,,,0.00,WUHU21623XXSP,2013-03-03 01:46:00,
2013-03-02 20:51:00,33.8,25.5,29.73,NNW,327,0.2,8.5,71,0.00,,,0.00,WUHU21623XXSP,2013-03-03 01:51:00,
2013-03-02 20:56:00,33.6,25.7,29.73,WNW,287,0.4,2.0,72,0.00,,,0.00,WUHU21623XXSP,2013-03-03 01:56:00,
2013-03-02 21:01:00,33.4,25.5,29.73,NNW,337,0.0,2.0,72,0.00,,,0.00,WUHU21623XXSP,2013-03-03 02:01:00,
2013-03-02 21:06:00,33.4,25.8,29.73,NNW,337,0.0,2.9,73,0.00,,,0.00,WUHU21623XXSP,2013-03-03 02:06:00,
2013-03-02 21:11:00,33.3,26.0,29.73,West,272,1.5,3.1,74,0.00,,,0.00,WUHU21623XXSP,2013-03-03 02:11:00,
2013-03-02 21:16:00,32.9,25.6,29.73,WNW,292,0.0,3.1,74,0.00,,,0.00,WUHU21623XXSP,2013-03-03 02:16:00,
2013-03-02 21:21:00,32.9,25.9,29.73,SW,225,0.5,2.7,75,0.00,,,0.00,WUHU21623XXSP,2013-03-03 02:21:00,
2013-03-02 21:26:00,32.7,26.1,29.73,South,180,0.0,1.8,76,0.00,,,0.00,WUHU21623XXSP,2013-03-03 02:26:00,
2013-03-02 21:31:00,32.7,26.1,29.73,NNW,337,0.0,1.8,76,0.00,,,0.00,WUHU21623XXSP,2013-03-03 02:31:00,
2013-03-02 21:36:00,32.7,26.4,29.73,NW,315,0.7,3.1,77,0.00,,,0.00,WUHU21623XXSP,2013-03-03 02:36:00,
2013-03-02 21:41:00,32.5,26.2,29.73,WNW,285,2.5,6.0,77,0.00,,,0.00,WUHU21623XXSP,2013-03-03 02:41:00,
2013-03-02 21:46:00,32.4,26.1,29.73,West,270,2.5,6.0,77,0.00,,,0.00,WUHU21623XXSP,2013-03-03 02:46:00,
2013-03-02 21:52:00,32.2,26.2,29.73,East,94,2.7,4.7,78,0.00,,,0.00,WUHU21623XXSP,2013-03-03 02:52:00,
2013-03-02 21:57:00,32.2,26.2,29.73,WNW,292,0.3,3.8,78,0.00,,,0.00,WUHU21623XXSP,2013-03-03 02:57:00,
2013-03-02 22:02:00,31.8,26.1,29.73,South,182,0.3,3.8,79,0.00,,,0.00,WUHU21623XXSP,2013-03-03 03:02:00,
2013-03-02 22:07:00,31.6,25.9,29.73,NW,312,1.3,4.5,79,0.00,,,0.00,WUHU21623XXSP,2013-03-03 03:07:00,
2013-03-02 22:12:00,31.6,26.2,29.73,NW,305,2.0,5.4,80,0.00,,,0.00,WUHU21623XXSP,2013-03-03 03:12:00,
2013-03-02 22:17:00,31.5,26.1,29.72,WNW,296,1.1,5.4,80,0.00,,,0.00,WUHU21623XXSP,2013-03-03 03:17:00,
2013-03-02 22:22:00,31.5,26.4,29.72,NNW,337,0.1,3.8,81,0.00,,,0.00,WUHU21623XXSP,2013-03-03 03:22:00,
2013-03-02 22:27:00,31.3,26.2,29.73,SSW,202,0.1,3.8,81,0.00,,,0.00,WUHU21623XXSP,2013-03-03 03:27:00,
2013-03-02 22:32:00,31.1,26.0,29.73,NW,315,0.2,3.1,81,0.00,,,0.00,WUHU21623XXSP,2013-03-03 03:32:00,
2013-03-02 22:37:00,31.1,26.3,29.73,NW,315,0.1,3.1,82,0.00,,,0.00,WUHU21623XXSP,2013-03-03 03:37:00,
2013-03-02 22:42:00,31.1,26.3,29.72,WNW,301,0.4,1.8,82,0.00,,,0.00,WUHU21623XXSP,2013-03-03 03:42:00,
2013-03-02 22:47:00,31.3,26.5,29.72,SW,217,0.4,2.0,82,0.00,,,0.00,WUHU21623XXSP,2013-03-03 03:47:00,
2013-03-02 22:52:00,31.1,26.3,29.72,North,0,0.0,2.0,82,0.00,,,0.00,WUHU21623XXSP,2013-03-03 03:52:00,
2013-03-02 22:57:00,31.1,26.3,29.72,NW,315,0.2,4.3,82,0.00,,,0.00,WUHU21623XXSP,2013-03-03 03:57:00,
2013-03-02 23:02:00,30.9,26.4,29.71,SW,236,0.5,4.3,83,0.00,,,0.00,WUHU21623XXSP,2013-03-03 04:02:00,
2013-03-02 23:07:00,30.9,26.4,29.71,WSW,247,0.5,4.3,83,0.00,,,0.00,WUHU21623XXSP,2013-03-03 04:07:00,
2013-03-02 23:12:00,30.9,26.4,29.71,NNW,339,0.5,3.6,83,0.00,,,0.00,WUHU21623XXSP,2013-03-03 04:12:00,
2013-03-02 23:17:00,30.7,26.2,29.71,NW,315,0.1,3.6,83,0.00,,,0.00,WUHU21623XXSP,2013-03-03 04:17:00,
2013-03-02 23:22:00,30.7,26.2,29.71,WSW,247,2.2,7.2,83,0.00,,,0.00,WUHU21623XXSP,2013-03-03 04:22:00,
2013-03-02 23:27:00,30.7,26.2,29.71,South,180,1.1,7.2,83,0.00,,,0.00,WUHU21623XXSP,2013-03-03 04:27:00,
2013-03-02 23:32:00,30.7,26.2,29.71,NW,315,1.6,3.4,83,0.00,,,0.00,WUHU21623XXSP,2013-03-03 04:32:00,
2013-03-02 23:37:00,30.7,26.2,29.71,NNE,18,0.9,3.4,83,0.00,,,0.00,WUHU21623XXSP,2013-03-03 04:37:00,
2013-03-02 23:42:00,30.7,26.2,29.71,WNW,291,2.0,5.8,83,0.00,,,0.00,WUHU21623XXSP,2013-03-03 04:42:00,
2013-03-02 23:47:00,30.7,26.2,29.71,NNW,327,1.0,5.8,83,0.00,,,0.00,WUHU21623XXSP,2013-03-03 04:47:00,
2013-03-02 23:52:00,30.6,26.1,29.71,NE,45,1.6,2.5,83,0.00,,,0.00,WUHU21623XXSP,2013-03-03 04:52:00,
2013-03-02 23:58:00,30.6,26.1,29.71,NE,45,0.5,5.4,83,0.00,,,0.00,WUHU21623XXSP,2013-03-03 04:58:00,